Time;durP1;ratioP1;P1;durP2;ratioP2;P2;SDS_P1;SDS_P2;PMS_P1;PMS_P2;Temp;Humidity;BMP_temperature;BMP_pressure;BME280_temperature;BME280_humidity;BME280_pressure;Samples;Min_cycle;Max_cycle;Signal;HPM_P1;HPM_P2
2022/03/14 00:00:50;;;;;;;9.43;7.40;;;7.20;29.50;;;;;;5031623;28;20254;-51
2022/03/14 00:03:16;;;;;;;8.97;7.00;;;7.20;30.00;;;;;;5031248;28;20234;-54
2022/03/14 00:05:42;;;;;;;9.50;7.27;;;7.10;30.60;;;;;;5031360;28;20270;-53
2022/03/14 00:08:08;;;;;;;9.57;7.03;;;7.00;30.30;;;;;;5031233;28;20202;-53
2022/03/14 00:10:37;;;;;;;10.90;8.00;;;7.00;30.50;;;;;;5031671;28;20168;-51
2022/03/14 00:13:08;;;;;;;9.50;7.80;;;6.90;30.40;;;;;;5031384;28;20568;-53
2022/03/14 00:15:34;;;;;;;9.73;7.60;;;6.80;30.30;;;;;;5032547;28;20225;-51
2022/03/14 00:18:01;;;;;;;10.03;8.67;;;6.80;30.30;;;;;;5031281;28;20175;-50
2022/03/14 00:20:27;;;;;;;10.13;8.17;;;6.70;31.20;;;;;;5031578;28;20247;-54
2022/03/14 00:22:53;;;;;;;10.67;8.37;;;6.80;30.60;;;;;;5031568;28;20233;-54
2022/03/14 00:25:19;;;;;;;9.80;7.90;;;6.80;31.10;;;;;;5031168;28;20204;-52
2022/03/14 00:27:45;;;;;;;9.87;7.57;;;6.80;32.00;;;;;;5031322;28;20230;-53
2022/03/14 00:30:12;;;;;;;9.77;7.47;;;6.70;32.30;;;;;;5031080;28;20230;-51
2022/03/14 00:32:38;;;;;;;7.77;6.33;;;6.70;32.10;;;;;;5031510;28;20303;-55
2022/03/14 00:35:04;;;;;;;9.13;7.20;;;6.60;31.90;;;;;;5031064;28;20200;-51
2022/03/14 00:37:30;;;;;;;8.57;6.73;;;6.60;32.10;;;;;;5031044;28;20175;-54
2022/03/14 00:39:56;;;;;;;8.70;6.93;;;6.60;32.10;;;;;;5031005;28;20175;-52
2022/03/14 00:42:22;;;;;;;8.67;7.00;;;6.50;32.20;;;;;;5031391;28;20176;-55
2022/03/14 00:44:48;;;;;;;8.10;6.70;;;6.50;32.70;;;;;;5031190;28;20219;-52
2022/03/14 00:47:15;;;;;;;8.33;6.90;;;6.40;32.60;;;;;;5030613;28;20638;-54
2022/03/14 00:49:40;;;;;;;10.03;7.60;;;6.40;32.30;;;;;;5031388;28;20251;-51
2022/03/14 00:52:06;;;;;;;8.40;6.67;;;6.40;33.10;;;;;;5031053;28;20167;-52
2022/03/14 00:54:31;;;;;;;7.50;6.17;;;6.30;33.10;;;;;;5031167;28;20711;-49
2022/03/14 00:56:57;;;;;;;8.33;6.90;;;6.20;33.20;;;;;;5030790;28;20168;-49
2022/03/14 00:59:24;;;;;;;7.53;6.60;;;6.20;33.00;;;;;;5032658;28;20175;-51
2022/03/14 01:01:50;;;;;;;8.67;6.70;;;6.20;33.40;;;;;;5034484;28;20179;-54
2022/03/14 01:04:15;;;;;;;8.13;6.47;;;6.10;33.40;;;;;;5034810;28;20195;-51
2022/03/14 01:06:41;;;;;;;8.03;6.23;;;6.10;34.20;;;;;;5034419;28;20188;-53
2022/03/14 01:09:07;;;;;;;9.97;6.90;;;6.10;34.30;;;;;;5034281;28;20174;-51
2022/03/14 01:11:33;;;;;;;8.20;6.43;;;6.00;34.20;;;;;;5034742;28;20167;-55
2022/03/14 01:13:58;;;;;;;8.10;6.27;;;5.90;34.20;;;;;;5034382;28;20254;-50
2022/03/14 01:16:24;;;;;;;7.53;6.33;;;5.90;34.30;;;;;;5016523;28;20208;-54
2022/03/14 01:18:49;;;;;;;7.77;6.53;;;5.90;34.40;;;;;;5034118;28;20172;-52
2022/03/14 01:21:15;;;;;;;8.17;6.93;;;5.80;34.60;;;;;;5034620;28;20179;-51
2022/03/14 01:23:40;;;;;;;8.50;7.00;;;5.80;34.70;;;;;;5034199;28;20191;-54
2022/03/14 01:26:08;;;;;;;8.57;6.90;;;5.80;34.70;;;;;;5033835;28;20188;-51
2022/03/14 01:28:34;;;;;;;7.73;6.50;;;5.80;35.30;;;;;;5034351;28;20160;-51
2022/03/14 01:31:00;;;;;;;8.23;7.00;;;5.70;35.20;;;;;;5034040;28;20168;-49
2022/03/14 01:33:25;;;;;;;7.83;6.57;;;5.70;35.10;;;;;;5034414;28;20179;-53
2022/03/14 01:35:51;;;;;;;8.83;6.67;;;5.70;35.20;;;;;;5015659;28;20199;-49
2022/03/14 01:38:17;;;;;;;8.50;6.50;;;5.60;35.30;;;;;;5034134;28;20176;-56
2022/03/14 01:40:42;;;;;;;9.00;6.53;;;5.60;35.70;;;;;;5034026;28;20195;-54
2022/03/14 01:43:08;;;;;;;9.13;6.67;;;5.50;35.60;;;;;;5034102;28;20180;-54
2022/03/14 01:45:34;;;;;;;9.10;6.33;;;5.50;36.00;;;;;;5033520;28;20250;-51
2022/03/14 01:47:59;;;;;;;8.17;6.20;;;5.40;36.30;;;;;;5033818;28;20164;-57
2022/03/14 01:50:25;;;;;;;10.03;6.23;;;5.40;36.20;;;;;;5034072;28;20641;-51
2022/03/14 01:52:51;;;;;;;9.57;7.07;;;5.20;36.60;;;;;;5033398;28;20296;-53
2022/03/14 01:55:16;;;;;;;10.13;7.53;;;5.10;37.20;;;;;;5033863;28;20206;-49
2022/03/14 01:57:43;;;;;;;9.43;6.63;;;5.00;37.80;;;;;;5033255;28;20190;-55
2022/03/14 02:00:11;;;;;;;7.43;6.63;;;5.00;38.20;;;;;;5033814;28;20202;-54
2022/03/14 02:02:37;;;;;;;7.47;6.43;;;4.90;37.60;;;;;;5015662;28;20180;-51
2022/03/14 02:05:03;;;;;;;8.13;6.03;;;4.90;37.50;;;;;;5033653;28;20202;-54
2022/03/14 02:07:28;;;;;;;9.33;7.10;;;4.90;37.20;;;;;;5032985;28;20254;-56
2022/03/14 02:09:54;;;;;;;8.27;6.77;;;4.90;37.20;;;;;;5033083;28;20676;-55
2022/03/14 02:12:20;;;;;;;7.70;6.70;;;4.90;37.00;;;;;;5033165;28;20168;-55
2022/03/14 02:14:45;;;;;;;8.23;7.00;;;4.90;37.00;;;;;;5033053;28;20277;-54
2022/03/14 02:17:13;;;;;;;8.53;6.97;;;4.90;37.00;;;;;;5033313;28;20180;-53
2022/03/14 02:19:40;;;;;;;8.70;6.80;;;5.00;37.30;;;;;;5033215;28;20573;-50
2022/03/14 02:22:12;;;;;;;8.70;6.93;;;5.00;37.10;;;;;;5033333;28;20186;-56
2022/03/14 02:24:39;;;;;;;8.87;7.23;;;5.00;36.70;;;;;;5033014;28;20211;-53
2022/03/14 02:27:05;;;;;;;9.13;7.00;;;5.00;36.80;;;;;;5033104;28;20179;-53
2022/03/14 02:29:31;;;;;;;8.30;6.60;;;5.00;36.50;;;;;;5032987;28;20708;-54
2022/03/14 02:31:56;;;;;;;8.67;6.97;;;5.00;36.70;;;;;;5033268;28;20246;-53
2022/03/14 02:34:22;;;;;;;10.13;6.97;;;5.00;36.90;;;;;;5033098;28;20180;-57
2022/03/14 02:36:48;;;;;;;8.60;6.73;;;5.10;37.50;;;;;;5032429;28;20178;-51
2022/03/14 02:39:13;;;;;;;8.93;6.60;;;5.00;37.00;;;;;;5033051;28;20176;-57
2022/03/14 02:41:40;;;;;;;8.60;6.70;;;5.00;37.20;;;;;;5032684;28;20225;-54
2022/03/14 02:44:07;;;;;;;11.00;6.93;;;5.00;37.10;;;;;;5032952;28;20660;-54
2022/03/14 02:46:40;;;;;;;9.00;6.57;;;5.00;37.30;;;;;;5032422;28;20191;-56
2022/03/14 02:49:07;;;;;;;7.90;6.30;;;4.90;37.60;;;;;;5032790;28;20179;-57
2022/03/14 02:51:38;;;;;;;8.67;6.80;;;4.90;37.50;;;;;;5032551;28;20258;-55
2022/03/14 02:54:05;;;;;;;8.53;6.70;;;4.90;38.00;;;;;;5032863;28;20182;-57
2022/03/14 02:56:31;;;;;;;8.67;6.73;;;4.80;38.10;;;;;;5032398;28;20658;-54
2022/03/14 02:58:57;;;;;;;8.53;6.47;;;4.80;38.80;;;;;;5032474;28;20194;-57
2022/03/14 03:01:22;;;;;;;8.60;6.77;;;4.80;38.80;;;;;;5032627;28;20172;-57
2022/03/14 03:03:49;;;;;;;9.57;7.07;;;4.80;38.80;;;;;;5032143;28;20200;-52
2022/03/14 03:06:22;;;;;;;10.17;6.80;;;4.70;38.50;;;;;;5032246;28;20184;-57
2022/03/14 03:08:49;;;;;;;9.40;6.77;;;4.70;38.50;;;;;;5032222;28;20560;-56
2022/03/14 03:11:16;;;;;;;8.53;6.60;;;4.70;38.50;;;;;;5032474;28;20186;-56
2022/03/14 03:13:42;;;;;;;8.23;6.50;;;4.70;38.40;;;;;;5032099;28;20407;-56
2022/03/14 03:16:09;;;;;;;9.37;6.73;;;4.70;38.90;;;;;;5031890;28;20211;-53
2022/03/14 03:18:35;;;;;;;9.63;6.47;;;4.70;39.00;;;;;;5014255;28;20259;-52
2022/03/14 03:21:01;;;;;;;9.07;6.80;;;4.70;38.90;;;;;;5032126;28;20168;-52
2022/03/14 03:23:28;;;;;;;8.57;6.90;;;4.60;39.10;;;;;;5031794;28;20286;-55
2022/03/14 03:25:54;;;;;;;9.43;7.07;;;4.60;39.30;;;;;;5031693;28;20279;-56
2022/03/14 03:28:19;;;;;;;8.63;6.83;;;4.60;38.90;;;;;;5032136;28;20214;-52
2022/03/14 03:30:45;;;;;;;8.70;6.93;;;4.50;39.30;;;;;;5031734;28;20688;-56
2022/03/14 03:33:10;;;;;;;8.90;6.73;;;4.50;39.60;;;;;;5032174;28;20255;-57
2022/03/14 03:35:36;;;;;;;9.17;6.87;;;4.50;39.50;;;;;;5031366;28;20188;-57
2022/03/14 03:38:01;;;;;;;7.63;6.40;;;4.50;39.90;;;;;;5031998;28;20625;-57
2022/03/14 03:40:27;;;;;;;8.33;6.87;;;4.50;39.70;;;;;;5031763;28;20873;-57
2022/03/14 03:42:52;;;;;;;10.83;6.27;;;4.50;39.70;;;;;;5031964;28;20600;-57
2022/03/14 03:45:18;;;;;;;9.07;7.13;;;4.50;39.50;;;;;;5031643;28;20576;-57
2022/03/14 03:47:44;;;;;;;9.30;6.83;;;4.50;39.50;;;;;;5031305;28;20168;-56
2022/03/14 03:50:10;;;;;;;10.23;6.90;;;4.50;39.30;;;;;;5031971;28;20175;-57
2022/03/14 03:52:36;;;;;;;10.37;6.97;;;4.50;39.30;;;;;;5031526;28;20204;-56
2022/03/14 03:55:01;;;;;;;9.70;6.60;;;4.40;39.40;;;;;;5031887;28;20223;-54
2022/03/14 03:57:27;;;;;;;9.17;6.83;;;4.40;39.20;;;;;;5031015;28;20180;-57
2022/03/14 03:59:53;;;;;;;7.83;6.27;;;4.50;39.60;;;;;;5031806;28;20172;-55
2022/03/14 04:02:19;;;;;;;8.60;7.20;;;4.50;39.90;;;;;;5031572;28;20171;-56
2022/03/14 04:04:50;;;;;;;7.83;6.23;;;4.40;39.70;;;;;;5031608;28;20203;-57
2022/03/14 04:07:19;;;;;;;8.73;6.83;;;4.40;39.80;;;;;;5031408;28;20171;-56
2022/03/14 04:09:46;;;;;;;9.27;7.43;;;4.30;39.90;;;;;;5031357;28;20425;-56
2022/03/14 04:12:12;;;;;;;7.63;6.20;;;4.30;40.10;;;;;;5031690;28;20167;-56
2022/03/14 04:14:38;;;;;;;7.83;6.77;;;4.30;40.30;;;;;;5031138;28;20410;-56
2022/03/14 04:17:04;;;;;;;10.40;7.03;;;4.30;40.60;;;;;;5031469;28;20490;-57
2022/03/14 04:19:30;;;;;;;8.77;6.50;;;4.30;40.70;;;;;;5031290;28;20278;-49
2022/03/14 04:21:56;;;;;;;8.83;6.90;;;4.30;40.30;;;;;;5031631;28;20661;-52
2022/03/14 04:24:22;;;;;;;8.50;7.07;;;4.30;41.40;;;;;;5029961;28;20541;-51
2022/03/14 04:26:48;;;;;;;11.10;6.40;;;4.30;40.70;;;;;;5031216;28;20417;-53
2022/03/14 04:29:14;;;;;;;8.27;6.10;;;4.20;41.00;;;;;;5031499;28;20160;-53
2022/03/14 04:31:41;;;;;;;9.07;7.00;;;4.30;41.20;;;;;;5031070;28;20753;-52
2022/03/14 04:34:07;;;;;;;9.67;6.37;;;4.20;40.80;;;;;;5034401;28;20664;-52
2022/03/14 04:36:32;;;;;;;8.10;6.20;;;4.20;40.80;;;;;;5034645;28;20513;-49
2022/03/14 04:38:58;;;;;;;9.67;6.40;;;4.20;41.10;;;;;;5035376;28;20199;-53
2022/03/14 04:41:23;;;;;;;8.20;6.50;;;4.20;41.20;;;;;;5034835;28;20172;-56
2022/03/14 04:43:49;;;;;;;7.97;6.80;;;4.20;41.30;;;;;;5035151;28;20242;-51
2022/03/14 04:46:14;;;;;;;9.47;6.43;;;4.20;41.40;;;;;;5034654;28;20206;-49
2022/03/14 04:48:40;;;;;;;8.03;6.40;;;5.20;42.20;;;;;;5035072;28;20286;-55
2022/03/14 04:51:07;;;;;;;9.77;6.60;;;4.20;41.40;;;;;;5035239;28;20170;-52
2022/03/14 04:53:35;;;;;;;8.50;6.60;;;4.10;41.20;;;;;;5034766;28;20168;-51
2022/03/14 04:56:01;;;;;;;8.70;6.60;;;4.10;41.40;;;;;;5034440;28;20434;-50
2022/03/14 04:58:27;;;;;;;8.97;6.97;;;4.10;41.60;;;;;;5034858;28;20818;-50
2022/03/14 05:00:54;;;;;;;7.97;6.37;;;4.10;41.60;;;;;;5034975;28;20204;-53
2022/03/14 05:03:20;;;;;;;10.60;7.60;;;3.90;41.90;;;;;;5034656;28;20410;-52
2022/03/14 05:05:46;;;;;;;9.57;7.23;;;3.70;42.30;;;;;;5034505;28;20988;-51
2022/03/14 05:08:12;;;;;;;11.63;8.77;;;3.50;42.70;;;;;;5034348;28;20406;-51
2022/03/14 05:10:37;;;;;;;10.73;8.43;;;3.40;42.90;;;;;;5034662;28;20652;-53
2022/03/14 05:13:03;;;;;;;11.63;9.00;;;3.30;43.10;;;;;;5034764;28;20266;-52
2022/03/14 05:15:30;;;;;;;11.67;8.63;;;3.30;43.20;;;;;;5034046;28;20218;-52
2022/03/14 05:17:57;;;;;;;12.83;9.10;;;3.40;43.50;;;;;;5034439;28;20191;-54
2022/03/14 05:20:23;;;;;;;14.30;9.63;;;3.60;43.80;;;;;;5034145;28;20905;-54
2022/03/14 05:22:49;;;;;;;11.70;9.30;;;3.70;42.90;;;;;;5034608;28;20505;-52
2022/03/14 05:25:17;;;;;;;14.20;9.87;;;3.70;42.60;;;;;;5033914;28;20716;-51
2022/03/14 05:27:42;;;;;;;13.73;9.70;;;3.80;42.50;;;;;;5034096;28;20437;-52
2022/03/14 05:30:09;;;;;;;12.23;9.40;;;3.80;42.30;;;;;;5034039;28;20410;-54
2022/03/14 05:32:36;;;;;;;11.83;9.40;;;3.90;42.40;;;;;;5034304;28;20175;-51
2022/03/14 05:35:02;;;;;;;12.97;9.97;;;4.00;42.40;;;;;;5034495;28;20791;-55
2022/03/14 05:37:27;;;;;;;13.17;8.73;;;4.00;42.40;;;;;;5033578;28;20458;-55
2022/03/14 05:39:53;;;;;;;14.17;9.83;;;4.00;42.20;;;;;;5034188;28;20889;-51
2022/03/14 05:42:19;;;;;;;11.07;8.80;;;4.10;42.50;;;;;;5033651;28;20179;-57
2022/03/14 05:44:45;;;;;;;11.13;9.50;;;4.10;42.70;;;;;;5033158;28;20214;-56
2022/03/14 05:47:11;;;;;;;11.27;8.70;;;4.20;42.50;;;;;;5033381;28;20222;-51
2022/03/14 05:49:37;;;;;;;10.17;8.13;;;4.20;42.70;;;;;;5016135;28;20423;-51
2022/03/14 05:52:03;;;;;;;11.30;7.63;;;4.20;43.20;;;;;;5033577;28;20536;-51
2022/03/14 05:54:28;;;;;;;9.30;7.37;;;4.10;43.50;;;;;;5033532;28;20179;-50
2022/03/14 05:56:54;;;;;;;10.87;7.43;;;4.00;43.90;;;;;;5033511;28;20171;-55
2022/03/14 05:59:20;;;;;;;9.53;7.53;;;4.00;44.90;;;;;;5033529;28;20178;-50
2022/03/14 06:01:47;;;;;;;9.27;7.27;;;4.00;44.10;;;;;;5033814;28;20178;-52
2022/03/14 06:04:13;;;;;;;10.00;7.70;;;4.00;44.40;;;;;;5033340;28;20191;-50
2022/03/14 06:06:38;;;;;;;9.67;7.80;;;4.10;44.60;;;;;;5033244;28;20196;-53
2022/03/14 06:09:04;;;;;;;11.80;9.57;;;4.10;44.60;;;;;;5033133;28;20186;-49
2022/03/14 06:11:30;;;;;;;17.97;14.90;;;4.10;44.60;;;;;;5033416;28;20190;-53
2022/03/14 06:13:56;;;;;;;17.70;13.77;;;4.20;44.70;;;;;;5033157;28;20199;-54
2022/03/14 06:16:22;;;;;;;12.83;9.70;;;4.30;44.80;;;;;;5034138;28;20208;-50
2022/03/14 06:18:48;;;;;;;10.70;8.00;;;4.40;44.90;;;;;;5033253;28;20419;-49
2022/03/14 06:21:14;;;;;;;9.47;8.00;;;4.60;45.00;;;;;;5032946;28;20541;-57
2022/03/14 06:23:39;;;;;;;9.40;7.47;;;4.70;44.80;;;;;;5032552;28;20188;-49
2022/03/14 06:26:05;;;;;;;10.20;7.87;;;4.80;44.60;;;;;;5032405;28;20191;-52
2022/03/14 06:28:30;;;;;;;9.63;8.37;;;4.90;44.50;;;;;;5032775;28;20172;-51
2022/03/14 06:30:56;;;;;;;10.43;8.17;;;4.90;44.60;;;;;;5032522;28;20369;-52
2022/03/14 06:33:22;;;;;;;13.83;9.50;;;4.90;44.10;;;;;;5033129;28;20255;-54
2022/03/14 06:35:47;;;;;;;11.60;8.87;;;5.00;43.40;;;;;;5032520;28;20191;-51
2022/03/14 06:38:13;;;;;;;14.37;10.83;;;5.10;43.00;;;;;;5032275;28;20652;-54
2022/03/14 06:40:41;;;;;;;11.80;9.57;;;5.20;42.50;;;;;;5031489;28;20179;-55
2022/03/14 06:43:07;;;;;;;16.20;12.53;;;5.20;41.70;;;;;;5032162;28;20259;-53
2022/03/14 06:45:33;;;;;;;16.20;11.97;;;5.20;41.80;;;;;;5032256;28;20249;-49
2022/03/14 06:47:59;;;;;;;18.10;16.23;;;5.40;42.00;;;;;;5032297;28;20669;-50
2022/03/14 06:50:25;;;;;;;9.83;8.00;;;5.30;40.50;;;;;;5032614;28;20160;-53
2022/03/14 06:52:51;;;;;;;11.93;8.37;;;5.30;40.90;;;;;;5032096;28;20318;-53
2022/03/14 06:55:17;;;;;;;9.43;7.67;;;5.50;40.90;;;;;;5032596;28;20926;-50
2022/03/14 06:57:42;;;;;;;10.50;8.20;;;5.50;41.60;;;;;;5030510;28;20250;-55
2022/03/14 07:00:08;;;;;;;12.30;8.43;;;5.60;42.10;;;;;;5030965;28;20180;-56
2022/03/14 07:02:37;;;;;;;10.50;8.40;;;5.60;41.40;;;;;;5032372;28;20538;-55
2022/03/14 07:05:03;;;;;;;11.57;8.40;;;5.60;40.90;;;;;;5031773;28;20207;-50
2022/03/14 07:07:29;;;;;;;11.33;8.20;;;5.50;41.70;;;;;;5031991;28;20194;-49
2022/03/14 07:09:54;;;;;;;10.10;8.47;;;5.30;41.60;;;;;;5032022;28;20190;-56
2022/03/14 07:12:20;;;;;;;11.83;8.70;;;5.10;42.40;;;;;;5014750;28;20317;-54
2022/03/14 07:14:46;;;;;;;10.97;8.27;;;5.10;42.40;;;;;;5032110;28;20203;-52
2022/03/14 07:17:11;;;;;;;12.30;8.80;;;5.20;43.00;;;;;;5031857;28;20160;-53
2022/03/14 07:19:42;;;;;;;10.47;8.63;;;5.10;42.70;;;;;;5031995;28;20259;-55
2022/03/14 07:22:08;;;;;;;12.40;9.13;;;5.00;43.50;;;;;;5031540;28;20218;-50
2022/03/14 07:24:34;;;;;;;11.70;8.57;;;5.00;44.20;;;;;;5031835;28;20211;-50
2022/03/14 07:26:59;;;;;;;11.47;8.90;;;5.00;43.80;;;;;;5029175;28;20699;-52
2022/03/14 07:29:25;;;;;;;9.70;8.07;;;5.10;44.00;;;;;;5010137;28;20258;-48
2022/03/14 07:31:50;;;;;;;12.37;8.80;;;5.30;44.50;;;;;;5013920;28;20210;-51
2022/03/14 07:34:16;;;;;;;11.57;8.67;;;5.50;44.60;;;;;;5032000;28;20184;-53
2022/03/14 07:36:42;;;;;;;11.57;8.80;;;5.70;44.40;;;;;;5014052;28;20278;-51
2022/03/14 07:39:08;;;;;;;11.33;8.80;;;5.90;43.40;;;;;;5031785;28;20182;-52
2022/03/14 07:41:33;;;;;;;10.63;8.70;;;6.10;42.70;;;;;;5032150;28;20218;-54
2022/03/14 07:44:02;;;;;;;10.77;8.67;;;6.40;42.40;;;;;;5030155;28;20207;-53
2022/03/14 07:46:28;;;;;;;9.83;8.70;;;6.50;42.30;;;;;;5031453;28;20671;-48
2022/03/14 07:48:54;;;;;;;11.23;8.97;;;6.70;41.90;;;;;;5031706;28;20172;-50
2022/03/14 07:51:20;;;;;;;10.90;8.67;;;6.90;42.30;;;;;;5031468;28;20224;-49
2022/03/14 07:53:45;;;;;;;12.77;8.80;;;6.90;41.80;;;;;;5031899;28;20180;-51
2022/03/14 07:56:13;;;;;;;12.90;9.60;;;7.00;41.40;;;;;;5031222;28;20241;-52
2022/03/14 07:58:40;;;;;;;11.00;8.53;;;7.30;41.30;;;;;;5031738;28;20171;-53
2022/03/14 08:01:06;;;;;;;10.27;8.83;;;7.30;41.30;;;;;;5031548;28;20176;-52
2022/03/14 08:03:32;;;;;;;10.33;9.10;;;7.40;42.20;;;;;;5031414;28;20230;-54
2022/03/14 08:06:00;;;;;;;10.40;8.87;;;7.40;43.00;;;;;;5031567;28;20210;-55
2022/03/14 08:08:26;;;;;;;10.97;9.20;;;7.40;42.20;;;;;;5034415;28;20675;-53
2022/03/14 08:10:54;;;;;;;10.47;9.03;;;7.40;43.30;;;;;;5038367;28;20171;-55
2022/03/14 08:13:20;;;;;;;10.07;9.00;;;7.10;44.60;;;;;;5038065;28;20172;-53
2022/03/14 08:15:46;;;;;;;12.00;9.73;;;6.90;45.20;;;;;;5037811;28;20227;-56
2022/03/14 08:18:13;;;;;;;11.00;9.03;;;6.90;44.70;;;;;;5038011;28;20195;-49
2022/03/14 08:20:39;;;;;;;12.07;9.07;;;6.90;44.00;;;;;;5037935;28;20691;-53
2022/03/14 08:23:06;;;;;;;11.73;9.40;;;6.90;44.50;;;;;;5020603;28;20596;-56
2022/03/14 08:25:34;;;;;;;12.90;9.70;;;7.10;45.90;;;;;;5019745;28;20234;-50
2022/03/14 08:28:00;;;;;;;10.83;9.17;;;7.10;45.40;;;;;;5020769;28;20536;-51
2022/03/14 08:30:26;;;;;;;12.27;9.40;;;7.10;45.80;;;;;;5037841;28;20163;-53
2022/03/14 08:32:55;;;;;;;14.30;10.37;;;7.30;44.60;;;;;;5037918;28;20194;-53
2022/03/14 08:35:20;;;;;;;11.57;9.03;;;7.70;44.40;;;;;;5038034;28;20192;-48
2022/03/14 08:37:48;;;;;;;12.03;10.03;;;8.20;44.10;;;;;;5037222;28;20548;-50
2022/03/14 08:40:16;;;;;;;12.33;9.70;;;8.60;43.30;;;;;;5038144;28;20530;-53
2022/03/14 08:42:43;;;;;;;12.30;9.33;;;8.70;43.50;;;;;;5037513;28;20229;-54
2022/03/14 08:45:10;;;;;;;11.00;9.80;;;8.40;43.50;;;;;;5017716;28;20204;-49
2022/03/14 08:47:36;;;;;;;11.60;9.60;;;8.30;43.60;;;;;;5017696;28;20161;-50
2022/03/14 08:50:07;;;;;;;12.50;9.57;;;8.50;43.40;;;;;;5017871;28;20294;-51
2022/03/14 08:52:33;;;;;;;10.63;8.97;;;8.70;44.30;;;;;;5018228;28;20161;-53
2022/03/14 08:54:59;;;;;;;11.70;9.90;;;8.90;43.70;;;;;;5017609;28;20708;-51
2022/03/14 08:57:25;;;;;;;11.20;9.83;;;9.20;43.20;;;;;;5017753;28;20172;-56
2022/03/14 08:59:51;;;;;;;11.13;9.37;;;9.50;41.40;;;;;;5017252;28;20176;-54
2022/03/14 09:02:17;;;;;;;11.37;8.97;;;9.40;42.00;;;;;;5017989;28;20222;-56
2022/03/14 09:04:42;;;;;;;11.10;9.87;;;9.40;43.10;;;;;;5017939;28;20204;-55
2022/03/14 09:07:09;;;;;;;13.47;10.07;;;11.10;41.80;;;;;;5017185;28;20168;-53
2022/03/14 09:09:34;;;;;;;11.37;9.93;;;10.10;41.00;;;;;;5017976;28;20169;-54
2022/03/14 09:12:01;;;;;;;11.97;9.87;;;9.90;41.60;;;;;;5017540;28;20176;-51
2022/03/14 09:14:26;;;;;;;11.03;9.20;;;10.00;39.70;;;;;;5017634;28;20177;-56
2022/03/14 09:16:52;;;;;;;11.53;9.63;;;10.00;40.20;;;;;;5017466;28;20650;-56
2022/03/14 09:19:18;;;;;;;11.67;9.90;;;10.00;40.90;;;;;;5024087;28;20238;-56
2022/03/14 09:21:44;;;;;;;13.00;10.53;;;10.10;42.20;;;;;;5031213;28;20233;-50
2022/03/14 09:24:10;;;;;;;13.50;10.17;;;10.00;41.40;;;;;;5034102;28;20569;-56
2022/03/14 09:26:38;;;;;;;12.53;10.43;;;9.90;42.40;;;;;;5033366;28;20192;-52
2022/03/14 09:29:04;;;;;;;13.13;11.27;;;9.80;42.10;;;;;;5032718;28;20663;-55
2022/03/14 09:31:31;;;;;;;12.40;10.33;;;9.70;43.20;;;;;;5034089;28;20717;-56
2022/03/14 09:33:56;;;;;;;11.30;10.10;;;9.60;44.40;;;;;;5034410;28;20176;-55
2022/03/14 09:36:22;;;;;;;11.07;9.80;;;9.80;44.70;;;;;;5033651;28;20203;-54
2022/03/14 09:38:48;;;;;;;12.20;9.40;;;9.80;45.30;;;;;;5034319;28;20180;-56
2022/03/14 09:41:17;;;;;;;11.53;10.17;;;10.10;45.10;;;;;;5033908;28;20206;-56
2022/03/14 09:43:46;;;;;;;10.97;9.73;;;10.00;43.90;;;;;;5034023;28;20195;-56
2022/03/14 09:46:13;;;;;;;15.60;10.87;;;9.80;44.50;;;;;;5033525;28;20580;-52
2022/03/14 09:48:46;;;;;;;11.60;9.97;;;9.60;45.10;;;;;;5033826;28;20218;-55
2022/03/14 09:51:12;;;;;;;11.57;10.23;;;9.40;45.80;;;;;;5034119;28;20180;-54
2022/03/14 09:53:38;;;;;;;11.30;10.10;;;9.30;46.70;;;;;;5033400;28;20659;-56
2022/03/14 09:56:04;;;;;;;11.63;9.97;;;9.30;47.50;;;;;;5033444;28;20566;-56
2022/03/14 09:58:30;;;;;;;12.03;10.47;;;9.60;48.00;;;;;;5015683;28;20251;-56
2022/03/14 10:00:55;;;;;;;12.60;10.03;;;9.90;46.90;;;;;;5014524;28;20295;-56
2022/03/14 10:03:22;;;;;;;10.43;9.33;;;10.20;46.30;;;;;;5032299;28;20259;-56
2022/03/14 10:05:48;;;;;;;10.83;9.60;;;10.70;46.30;;;;;;5032523;28;20281;-52
2022/03/14 10:08:14;;;;;;;12.07;9.87;;;11.20;45.00;;;;;;5033854;28;20195;-56
2022/03/14 10:10:42;;;;;;;12.53;11.20;;;11.60;43.80;;;;;;5033310;28;20180;-51
2022/03/14 10:13:10;;;;;;;10.50;9.50;;;11.80;44.70;;;;;;5033664;28;20222;-52
2022/03/14 10:15:40;;;;;;;10.70;9.20;;;12.00;45.90;;;;;;5032901;28;20576;-50
2022/03/14 10:18:13;;;;;;;10.70;9.60;;;12.40;45.30;;;;;;5033421;28;20175;-51
2022/03/14 10:20:55;;;;;;;13.07;9.53;;;13.00;44.90;;;;;;5033645;28;20180;-51
2022/03/14 10:23:32;;;;;;;10.07;8.90;;;13.90;45.50;;;;;;5033100;28;20163;-51
2022/03/14 10:25:59;;;;;;;9.53;7.97;;;14.10;45.50;;;;;;5033051;28;20184;-53
2022/03/14 10:28:29;;;;;;;8.33;7.43;;;15.30;45.90;;;;;;5033030;28;20247;-57
2022/03/14 10:30:54;;;;;;;8.23;7.43;;;18.60;44.60;;;;;;5033117;28;20170;-56
2022/03/14 10:33:23;;;;;;;8.83;8.03;;;21.20;39.30;;;;;;5033193;28;20239;-50
2022/03/14 10:35:48;;;;;;;8.73;7.90;;;22.30;36.70;;;;;;5032747;28;20196;-54
2022/03/14 10:38:16;;;;;;;9.23;8.32;;;22.60;35.50;;;;;;5033212;28;20774;-54
2022/03/14 10:40:44;;;;;;;9.20;8.18;;;22.30;35.30;;;;;;5032977;28;20184;-51
2022/03/14 10:43:27;;;;;;;8.98;8.07;;;21.90;35.90;;;;;;5033325;28;20589;-56
2022/03/14 10:45:54;;;;;;;9.27;8.37;;;21.50;36.30;;;;;;5032366;28;20234;-54
2022/03/14 10:48:38;;;;;;;8.70;7.90;;;21.20;36.70;;;;;;5032736;28;20541;-57
2022/03/14 10:51:09;;;;;;;9.37;8.47;;;20.80;37.10;;;;;;5032694;28;20178;-54
2022/03/14 10:53:46;;;;;;;9.00;8.20;;;20.80;37.40;;;;;;5032872;28;20176;-58
2022/03/14 10:56:12;;;;;;;9.47;8.13;;;20.80;37.20;;;;;;5032226;28;20190;-55
2022/03/14 10:58:39;;;;;;;8.30;7.50;;;21.00;38.10;;;;;;5032507;28;20184;-56
2022/03/14 11:01:06;;;;;;;8.60;7.70;;;21.70;37.80;;;;;;5032553;28;20662;-56
2022/03/14 11:03:40;;;;;;;7.85;7.13;;;23.10;37.20;;;;;;5032229;28;20222;-55
2022/03/14 11:06:08;;;;;;;8.02;7.32;;;26.00;35.10;;;;;;5032363;28;20187;-55
2022/03/14 11:08:37;;;;;;;6.30;5.70;;;28.80;31.50;;;;;;5032254;28;20171;-56
2022/03/14 11:11:07;;;;;;;7.10;6.30;;;30.10;30.50;;;;;;5032569;28;20172;-53
2022/03/14 11:13:44;;;;;;;11.95;6.20;;;28.90;30.60;;;;;;5029065;28;20251;-52
2022/03/14 11:16:19;;;;;;;6.97;6.15;;;26.10;34.40;;;;;;5027161;28;20214;-51
2022/03/14 11:18:46;;;;;;;6.93;6.28;;;24.40;35.60;;;;;;5031192;28;20206;-49
2022/03/14 11:21:24;;;;;;;6.55;5.95;;;23.90;37.10;;;;;;5014332;28;20176;-52
2022/03/14 11:23:50;;;;;;;7.00;5.50;;;25.50;35.00;;;;;;5031145;28;20278;-53
2022/03/14 11:26:19;;;;;;;6.30;5.80;;;27.20;34.30;;;;;;5030394;28;20202;-56
2022/03/14 11:28:48;;;;;;;6.63;6.03;;;28.10;33.10;;;;;;5032079;28;20168;-56
2022/03/14 11:31:14;;;;;;;6.70;6.00;;;27.40;32.20;;;;;;5031797;28;20198;-54
2022/03/14 11:33:43;;;;;;;5.95;5.45;;;27.30;33.30;;;;;;5031645;28;20259;-58
2022/03/14 11:36:09;;;;;;;6.25;5.65;;;29.50;31.40;;;;;;5031588;28;20231;-57
2022/03/14 11:38:35;;;;;;;5.75;5.30;;;31.00;30.00;;;;;;5031612;28;20316;-58
2022/03/14 11:41:01;;;;;;;6.43;5.65;;;33.10;28.40;;;;;;5031950;28;20164;-59
2022/03/14 11:43:27;;;;;;;5.30;4.90;;;34.30;27.40;;;;;;5031116;28;20179;-58
2022/03/14 11:45:55;;;;;;;5.00;4.60;;;35.90;26.30;;;;;;5031040;28;20191;-56
2022/03/14 11:48:22;;;;;;;5.47;5.07;;;37.10;25.10;;;;;;5031693;28;20207;-57
2022/03/14 11:50:57;;;;;;;5.30;4.90;;;36.50;25.40;;;;;;5030015;28;20163;-57
2022/03/14 11:53:33;;;;;;;5.80;4.85;;;36.10;25.60;;;;;;5030632;28;20165;-54
2022/03/14 11:56:01;;;;;;;4.65;4.28;;;37.10;24.80;;;;;;5031253;28;20632;-58
2022/03/14 11:58:50;;;;;;;5.78;5.18;;;38.70;24.10;;;;;;5031654;28;20167;-57
2022/03/14 12:01:23;;;;;;;4.70;4.40;;;38.70;23.40;;;;;;5023142;28;20187;-57
2022/03/14 12:03:55;;;;;;;6.10;5.60;;;37.50;24.10;;;;;;5031357;28;20762;-57
2022/03/14 12:06:46;;;;;;;5.30;4.90;;;36.50;24.00;;;;;;5031354;28;20203;-57
2022/03/14 12:09:26;;;;;;;5.53;5.13;;;35.90;25.00;;;;;;5031305;28;20168;-57
2022/03/14 12:11:56;;;;;;;7.60;6.15;;;35.10;24.80;;;;;;5031501;28;20172;-57
2022/03/14 12:14:42;;;;;;;6.93;6.43;;;32.60;26.40;;;;;;5031216;28;20649;-57
2022/03/14 12:17:14;;;;;;;7.40;6.80;;;30.20;27.40;;;;;;5031268;28;20572;-58
2022/03/14 12:20:00;;;;;;;7.70;7.00;;;27.90;30.10;;;;;;5031305;28;20256;-59
2022/03/14 12:22:39;;;;;;;7.53;6.82;;;27.10;30.60;;;;;;5031465;28;20251;-58
2022/03/14 12:25:06;;;;;;;7.45;6.85;;;26.60;30.60;;;;;;5031141;28;20203;-59
2022/03/14 12:27:39;;;;;;;7.78;6.45;;;26.80;30.60;;;;;;5031192;28;20225;-58
2022/03/14 12:30:20;;;;;;;7.75;7.05;;;28.00;30.60;;;;;;5031304;28;20160;-58
2022/03/14 12:32:46;;;;;;;6.88;6.28;;;29.20;29.60;;;;;;5031331;28;20258;-59
2022/03/14 12:35:25;;;;;;;8.02;7.25;;;29.20;28.80;;;;;;5031317;28;20699;-59
2022/03/14 12:37:58;;;;;;;8.00;7.30;;;28.00;29.60;;;;;;5030800;28;20182;-53
2022/03/14 12:40:26;;;;;;;8.43;7.35;;;25.20;32.60;;;;;;5031455;28;20176;-49
2022/03/14 12:43:16;;;;;;;8.35;7.50;;;23.80;34.10;;;;;;5030734;28;20222;-58
2022/03/14 12:45:45;;;;;;;7.75;7.03;;;23.60;34.40;;;;;;5030782;28;20254;-58
2022/03/14 12:48:19;;;;;;;6.80;6.10;;;24.40;34.60;;;;;;5031133;28;20160;-58
2022/03/14 12:50:54;;;;;;;7.20;6.53;;;25.10;33.90;;;;;;5031226;28;20175;-57